Time;durP1;ratioP1;P1;durP2;ratioP2;P2;SDS_P1;SDS_P2;PMS_P1;PMS_P2;Temp;Humidity;BMP_temperature;BMP_pressure;BME280_temperature;BME280_humidity;BME280_pressure;Samples;Min_cycle;Max_cycle;Signal;HPM_P1;HPM_P2
2023/01/25 00:01:40;;;;;;;15.60;7.70;;;;;;;-1.13;97.87;94464.75;5048935;28;20473;-49
2023/01/25 00:04:06;;;;;;;14.55;6.07;;;;;;;-1.03;97.78;94466.28;5042368;28;20034;-50
2023/01/25 00:06:31;;;;;;;11.15;7.13;;;;;;;-1.05;96.97;94460.56;5028447;28;20068;-48
2023/01/25 00:08:57;;;;;;;6.80;4.68;;;;;;;-1.09;97.28;94474.25;5029724;28;20029;-51
2023/01/25 00:11:22;;;;;;;8.45;5.43;;;;;;;-1.12;96.59;94472.44;5048515;28;20036;-48
2023/01/25 00:13:48;;;;;;;8.15;4.25;;;;;;;-1.17;97.26;94466.88;5052028;28;20029;-50
2023/01/25 00:16:13;;;;;;;8.48;5.03;;;;;;;-1.05;96.81;94465.97;5052607;28;20470;-49
2023/01/25 00:18:39;;;;;;;7.38;4.88;;;;;;;-1.15;96.78;94469.88;5052587;28;20568;-49
2023/01/25 00:21:15;;;;;;;9.13;4.53;;;;;;;-1.18;97.06;94459.94;5052683;28;20419;-50
2023/01/25 00:23:41;;;;;;;6.28;4.53;;;;;;;-1.21;97.93;94467.00;5052628;28;20056;-50
2023/01/25 00:26:06;;;;;;;5.72;3.25;;;;;;;-1.14;97.29;94458.59;5046365;28;20071;-49
2023/01/25 00:28:32;;;;;;;6.85;4.18;;;;;;;-1.13;96.92;94457.41;5032207;28;20083;-49
2023/01/25 00:31:02;;;;;;;6.90;3.95;;;;;;;-1.20;97.28;94457.66;5031667;28;20056;-49
2023/01/25 00:33:36;;;;;;;5.55;3.67;;;;;;;-1.26;96.85;94448.63;5044695;28;20049;-49
2023/01/25 00:36:34;;;;;;;5.28;3.83;;;;;;;-1.18;97.24;94440.97;5051830;28;20033;-49
2023/01/25 00:39:00;;;;;;;4.80;3.05;;;;;;;-1.21;97.29;94448.03;5052114;28;20098;-50
2023/01/25 00:41:25;;;;;;;4.40;3.05;;;;;;;-1.28;97.51;94448.34;5051896;28;20025;-49
2023/01/25 00:43:51;;;;;;;7.10;4.50;;;;;;;-1.20;98.77;94444.13;5066644;28;20040;-49
2023/01/25 00:46:17;;;;;;;10.73;5.38;;;;;;;-1.18;98.60;94433.59;5071973;28;20474;-50
2023/01/25 00:48:43;;;;;;;5.93;3.92;;;;;;;-1.14;97.93;94438.84;5071706;28;20178;-50
2023/01/25 00:51:08;;;;;;;6.03;3.65;;;;;;;-1.10;98.37;94442.16;5071927;28;20088;-50
2023/01/25 00:53:34;;;;;;;9.35;4.50;;;;;;;-1.21;98.14;94445.31;5072107;28;20035;-48
2023/01/25 00:55:59;;;;;;;9.95;4.45;;;;;;;-1.28;98.22;94439.44;5071918;28;20035;-49
2023/01/25 00:58:25;;;;;;;5.22;2.75;;;;;;;-1.21;97.98;94444.59;5061511;28;20106;-49
2023/01/25 01:00:52;;;;;;;6.22;4.30;;;;;;;-1.35;98.08;94442.44;5051738;28;20040;-49
2023/01/25 01:03:17;;;;;;;5.82;3.85;;;;;;;-1.30;98.29;94445.28;5051503;28;20033;-49
2023/01/25 01:05:42;;;;;;;10.32;4.30;;;;;;;-1.28;98.12;94451.03;5032357;28;20128;-49
2023/01/25 01:08:08;;;;;;;11.93;6.03;;;;;;;-1.35;98.02;94453.25;5031215;28;20413;-50
2023/01/25 01:10:33;;;;;;;13.15;4.65;;;;;;;-1.29;98.00;94459.59;5044888;28;20040;-49
2023/01/25 01:12:59;;;;;;;10.73;5.38;;;;;;;-1.20;96.87;94454.19;5051193;28;20032;-50
2023/01/25 01:15:24;;;;;;;7.15;4.10;;;;;;;-1.36;97.15;94449.78;5051609;28;20039;-50
2023/01/25 01:17:50;;;;;;;8.35;3.83;;;;;;;-1.31;96.58;94446.50;5051143;28;20029;-51
2023/01/25 01:20:15;;;;;;;10.38;5.93;;;;;;;-1.37;97.05;94456.44;5051059;28;20021;-49
2023/01/25 01:22:40;;;;;;;9.20;5.07;;;;;;;-1.41;97.25;94453.13;5050595;28;20032;-50
2023/01/25 01:25:07;;;;;;;15.80;5.70;;;;;;;-1.39;98.01;94449.94;5051149;28;20032;-49
2023/01/25 01:27:32;;;;;;;10.85;5.82;;;;;;;-1.33;97.50;94451.63;5051004;28;20059;-49
2023/01/25 01:29:58;;;;;;;18.58;7.35;;;;;;;-1.34;97.43;94444.69;5050734;28;20612;-50
2023/01/25 01:32:23;;;;;;;9.20;4.63;;;;;;;-1.42;97.59;94440.00;5040070;28;20044;-51
2023/01/25 01:34:48;;;;;;;13.73;6.63;;;;;;;-1.39;97.33;94434.47;5051184;28;20182;-49
2023/01/25 01:37:14;;;;;;;14.27;4.97;;;;;;;-1.43;98.02;94433.09;5051109;28;20116;-50
2023/01/25 01:39:39;;;;;;;12.57;7.18;;;;;;;-1.41;98.65;94434.16;5061649;28;20032;-49
2023/01/25 01:42:05;;;;;;;10.80;4.95;;;;;;;-1.43;98.62;94433.84;5070857;28;20059;-50
2023/01/25 01:44:45;;;;;;;9.38;3.55;;;;;;;-1.41;98.53;94422.56;5070790;28;20028;-49
2023/01/25 01:47:34;;;;;;;11.18;5.05;;;;;;;-1.48;98.91;94422.84;5071172;28;20032;-49
2023/01/25 01:50:19;;;;;;;6.13;4.25;;;;;;;-1.43;99.24;94427.66;5069098;28;20033;-49
2023/01/25 01:52:44;;;;;;;10.85;6.50;;;;;;;-1.42;99.00;94426.47;5070551;28;20050;-50
2023/01/25 01:55:17;;;;;;;13.35;6.13;;;;;;;-1.40;99.22;94424.06;5070520;28;20028;-49
2023/01/25 01:57:52;;;;;;;6.63;3.95;;;;;;;-1.40;99.19;94426.75;5065332;28;20120;-50
2023/01/25 02:00:22;;;;;;;7.68;4.68;;;;;;;-1.44;98.84;94426.16;5050587;28;20028;-49
2023/01/25 02:02:49;;;;;;;7.38;4.13;;;;;;;-1.43;99.16;94420.31;5050311;28;20607;-49
2023/01/25 02:05:28;;;;;;;7.35;4.90;;;;;;;-1.43;98.92;94423.00;5034814;28;20064;-48
2023/01/25 02:07:54;;;;;;;10.82;5.53;;;;;;;-1.49;98.94;94427.50;5030831;28;20033;-49
2023/01/25 02:10:21;;;;;;;9.73;5.60;;;;;;;-1.47;98.82;94424.34;5043307;28;20055;-49
2023/01/25 02:12:47;;;;;;;8.40;4.25;;;;;;;-1.52;98.02;94424.94;5049150;28;20157;-50
2023/01/25 02:15:12;;;;;;;9.57;4.38;;;;;;;-1.59;98.56;94418.59;5048955;28;20492;-49
2023/01/25 02:17:39;;;;;;;6.68;3.72;;;;;;;-1.48;98.99;94417.41;5050573;28;20090;-49
2023/01/25 02:20:28;;;;;;;8.23;3.55;;;;;;;-1.46;98.75;94423.13;5048817;28;20108;-49
2023/01/25 02:22:59;;;;;;;5.22;3.85;;;;;;;-1.45;98.70;94421.94;5048711;28;20091;-48
2023/01/25 02:25:25;;;;;;;7.85;4.28;;;;;;;-1.59;98.31;94415.91;5050281;28;20031;-49
2023/01/25 02:27:58;;;;;;;6.68;4.25;;;;;;;-1.57;98.33;94416.19;5029253;28;20041;-51
2023/01/25 02:30:23;;;;;;;6.47;2.58;;;;;;;-1.62;98.30;94424.91;5028613;28;20099;-50
2023/01/25 02:32:49;;;;;;;5.50;3.20;;;;;;;-1.58;99.00;94417.38;5038772;28;20029;-51
2023/01/25 02:35:22;;;;;;;8.57;4.22;;;;;;;-1.56;98.78;94423.09;5028957;28;20036;-50
2023/01/25 02:37:49;;;;;;;6.40;3.53;;;;;;;-1.49;99.04;94418.63;5030190;28;20116;-49
2023/01/25 02:40:18;;;;;;;5.20;3.67;;;;;;;-1.47;98.68;94410.81;5046497;28;20020;-50
2023/01/25 02:42:44;;;;;;;12.50;5.93;;;;;;;-1.49;98.64;94410.50;5049472;28;20090;-52
2023/01/25 02:45:14;;;;;;;18.33;8.45;;;;;;;-1.52;98.42;94410.19;5048319;28;20025;-50
2023/01/25 02:47:39;;;;;;;38.22;19.58;;;;;;;-1.49;97.70;94410.50;5049652;28;20539;-48
2023/01/25 02:50:05;;;;;;;11.43;6.15;;;;;;;-1.56;96.84;94414.25;5049682;28;20029;-49
2023/01/25 02:52:30;;;;;;;6.20;4.10;;;;;;;-1.50;96.68;94409.75;5049645;28;20106;-49
2023/01/25 02:54:56;;;;;;;8.52;4.82;;;;;;;-1.50;96.26;94411.69;5049272;28;20455;-50
2023/01/25 02:57:21;;;;;;;8.32;5.05;;;;;;;-1.57;96.06;94416.19;5049735;28;20033;-49
2023/01/25 02:59:47;;;;;;;6.97;4.50;;;;;;;-1.49;96.67;94415.94;5049405;28;20489;-50
2023/01/25 03:02:13;;;;;;;9.55;5.70;;;;;;;-1.43;96.30;94406.75;5049410;28;20036;-49
2023/01/25 03:04:38;;;;;;;16.52;8.27;;;;;;;-1.44;96.19;94412.59;5049048;28;20036;-49
2023/01/25 03:07:04;;;;;;;12.90;7.97;;;;;;;-1.36;96.73;94405.69;5047917;28;20120;-50
2023/01/25 03:09:29;;;;;;;7.32;5.22;;;;;;;-1.37;96.84;94407.69;5043329;28;20025;-50
2023/01/25 03:11:55;;;;;;;8.13;5.07;;;;;;;-1.30;97.30;94409.34;5029148;28;20029;-50
2023/01/25 03:14:20;;;;;;;8.35;4.88;;;;;;;-1.31;96.71;94410.53;5029324;28;20029;-51
2023/01/25 03:16:46;;;;;;;4.75;4.05;;;;;;;-1.20;96.54;94410.84;5029365;28;20559;-50
2023/01/25 03:19:11;;;;;;;6.68;4.65;;;;;;;-1.29;94.95;94386.44;5029079;28;20025;-49
2023/01/25 03:21:39;;;;;;;8.75;5.05;;;;;;;-1.22;94.74;94403.19;5029284;28;20026;-50
2023/01/25 03:24:05;;;;;;;5.28;3.35;;;;;;;-1.33;94.50;94396.69;5028905;28;20025;-49
2023/01/25 03:27:09;;;;;;;4.55;3.42;;;;;;;-1.33;93.59;94405.56;5037942;28;20036;-49
2023/01/25 03:29:15;;;;;;;3.70;3.05;;;;;;;-1.24;94.10;94402.88;5048736;28;20110;-50
2023/01/25 03:31:41;;;;;;;7.95;4.53;;;;;;;-1.32;93.66;94395.50;5048883;28;20397;-50
2023/01/25 03:34:06;;;;;;;8.82;4.95;;;;;;;-1.31;93.54;94397.00;5031078;28;20540;-50
2023/01/25 03:36:32;;;;;;;4.47;3.05;;;;;;;-1.21;93.07;94401.97;5028762;28;20025;-50
2023/01/25 03:38:57;;;;;;;2.63;2.00;;;;;;;-1.21;93.95;94406.66;5034718;28;20086;-49
2023/01/25 03:41:23;;;;;;;7.22;2.72;;;;;;;-1.07;94.51;94406.06;5049334;28;20029;-49
2023/01/25 03:43:48;;;;;;;3.40;2.53;;;;;;;-1.11;94.12;94406.22;5048589;28;20044;-48
2023/01/25 03:46:14;;;;;;;2.53;1.92;;;;;;;-1.06;93.92;94407.56;5048668;28;20056;-49
2023/01/25 03:48:39;;;;;;;4.05;2.38;;;;;;;-1.29;94.28;94402.72;5048777;28;20473;-50
2023/01/25 03:51:04;;;;;;;4.13;2.83;;;;;;;-1.30;93.42;94410.06;5049126;28;20490;-49
2023/01/25 03:53:31;;;;;;;3.92;2.55;;;;;;;-1.30;94.31;94412.06;5048540;28;20534;-50
2023/01/25 03:56:03;;;;;;;4.53;2.95;;;;;;;-1.28;94.37;94405.00;5048764;28;20025;-49
2023/01/25 03:58:29;;;;;;;9.70;4.80;;;;;;;-1.19;93.61;94410.41;5048724;28;20036;-49
2023/01/25 04:00:56;;;;;;;15.10;7.68;;;;;;;-1.17;93.10;94405.28;5048810;28;20031;-50
2023/01/25 04:03:22;;;;;;;13.98;7.38;;;;;;;-1.28;92.58;94409.66;5048330;28;20043;-48
2023/01/25 04:05:48;;;;;;;8.43;5.00;;;;;;;-1.31;93.20;94408.59;5028555;28;20033;-49
2023/01/25 04:08:14;;;;;;;9.90;4.47;;;;;;;-1.27;93.40;94411.13;5028367;28;20028;-50
2023/01/25 04:10:39;;;;;;;4.85;3.10;;;;;;;-1.33;92.63;94413.69;5044025;28;20025;-49
2023/01/25 04:13:05;;;;;;;9.48;4.82;;;;;;;-1.42;92.54;94410.22;5048948;28;20041;-49
2023/01/25 04:15:30;;;;;;;6.13;3.45;;;;;;;-1.31;92.27;94410.53;5048258;28;20036;-49
2023/01/25 04:17:56;;;;;;;7.38;4.97;;;;;;;-1.29;92.84;94419.72;5048228;28;20024;-50
2023/01/25 04:20:22;;;;;;;9.10;5.30;;;;;;;-1.24;92.93;94412.97;5048508;28;20029;-50
2023/01/25 04:22:47;;;;;;;7.20;4.80;;;;;;;-1.24;93.44;94415.66;5048911;28;20025;-49
2023/01/25 04:25:13;;;;;;;8.40;3.85;;;;;;;-1.27;92.63;94408.44;5048347;28;20035;-50
2023/01/25 04:27:38;;;;;;;4.40;2.60;;;;;;;-1.22;93.23;94410.56;5048166;28;20420;-51
2023/01/25 04:30:04;;;;;;;13.10;7.75;;;;;;;-1.16;93.08;94409.50;5047772;28;20048;-49
2023/01/25 04:32:30;;;;;;;6.78;4.32;;;;;;;-1.14;93.59;94406.34;5033535;28;20041;-49
2023/01/25 04:34:56;;;;;;;6.32;4.25;;;;;;;-1.11;93.80;94405.44;5033786;28;20086;-50
2023/01/25 04:37:21;;;;;;;7.35;5.00;;;;;;;-1.05;94.27;94419.91;5068132;28;20032;-49
2023/01/25 04:39:47;;;;;;;5.85;3.95;;;;;;;-1.03;93.70;94410.13;5055075;28;20025;-49
2023/01/25 04:42:12;;;;;;;5.60;3.80;;;;;;;-0.94;93.97;94417.50;5048279;28;20029;-50
2023/01/25 04:44:37;;;;;;;5.90;3.22;;;;;;;-0.92;94.61;94412.38;5048372;28;20730;-50
2023/01/25 04:47:03;;;;;;;10.15;6.45;;;;;;;-0.92;95.18;94417.81;5048112;28;20555;-49
2023/01/25 04:49:28;;;;;;;19.10;9.27;;;;;;;-0.89;95.34;94414.19;5048127;28;20049;-51
2023/01/25 04:51:54;;;;;;;16.23;8.20;;;;;;;-0.98;94.92;94400.66;5048025;28;20400;-50
2023/01/25 04:54:19;;;;;;;16.67;6.85;;;;;;;-1.02;94.49;94411.63;5047012;28;20024;-49
2023/01/25 04:56:45;;;;;;;9.80;5.88;;;;;;;-0.99;95.43;94404.53;5048279;28;20021;-49
2023/01/25 04:59:10;;;;;;;9.93;4.65;;;;;;;-1.02;94.84;94395.34;5034144;28;20068;-50
2023/01/25 05:01:35;;;;;;;7.90;4.95;;;;;;;-0.96;94.74;94393.56;5031911;28;20475;-50
2023/01/25 05:04:01;;;;;;;5.80;4.32;;;;;;;-0.78;94.53;94398.25;5037395;28;20496;-49
2023/01/25 05:06:26;;;;;;;7.95;4.68;;;;;;;-0.81;94.21;94396.44;5051775;28;20562;-50
2023/01/25 05:08:52;;;;;;;11.73;6.70;;;;;;;-0.87;94.77;94404.38;5051284;28;20024;-50
2023/01/25 05:11:17;;;;;;;25.52;11.07;;;;;;;-0.85;94.57;94401.25;5051626;28;20409;-51
2023/01/25 05:13:43;;;;;;;19.70;8.45;;;;;;;-1.01;94.70;94406.94;5051560;28;20021;-49
2023/01/25 05:16:08;;;;;;;32.70;14.40;;;;;;;-1.00;94.96;94406.53;5051154;28;20067;-50
2023/01/25 05:18:33;;;;;;;42.88;15.68;;;;;;;-0.89;94.50;94411.50;5051192;28;20021;-51
2023/01/25 05:20:59;;;;;;;18.92;8.75;;;;;;;-0.86;93.85;94405.16;5051075;28;20025;-51
2023/01/25 05:23:24;;;;;;;19.23;8.90;;;;;;;-1.11;94.78;94400.03;5051285;28;20035;-50
2023/01/25 05:28:34;;;;;;;9.82;6.35;;;;;;;-1.03;95.75;94406.66;5071290;28;20051;-49
2023/01/25 05:31:03;;;;;;;7.00;4.53;;;;;;;-1.00;94.85;94403.06;5066643;28;20517;-50
2023/01/25 05:33:28;;;;;;;;;;;;;;;-1.00;94.81;94411.19;5039480;28;20029;-51
2023/01/25 05:35:55;;;;;;;6.20;3.45;;;;;;;-1.04;94.85;94407.88;5030830;28;19935;-51
2023/01/25 05:38:20;;;;;;;46.88;23.45;;;;;;;-1.05;94.61;94417.19;5032138;28;20120;-50
2023/01/25 05:40:46;;;;;;;11.60;7.75;;;;;;;-0.99;94.12;94413.44;5051250;28;20616;-51
2023/01/25 05:43:11;;;;;;;15.90;9.02;;;;;;;-1.03;93.97;94412.84;5051017;28;20033;-51
2023/01/25 05:45:37;;;;;;;12.07;6.28;;;;;;;-1.05;93.87;94398.97;5050808;28;20032;-50
2023/01/25 05:48:02;;;;;;;6.65;4.30;;;;;;;-1.08;92.92;94416.13;5051063;28;20021;-49
2023/01/25 05:50:28;;;;;;;8.23;5.40;;;;;;;-1.04;92.77;94422.16;5050828;28;20492;-50
2023/01/25 05:52:53;;;;;;;11.18;5.72;;;;;;;-1.03;91.82;94417.50;5050572;28;20408;-50
2023/01/25 05:55:18;;;;;;;7.35;4.30;;;;;;;-1.10;91.80;94423.19;5050728;28;20031;-51
2023/01/25 05:57:44;;;;;;;6.20;4.57;;;;;;;-1.16;91.80;94420.34;5050507;28;20025;-51
2023/01/25 06:00:10;;;;;;;6.07;4.10;;;;;;;-1.03;92.05;94425.63;5050518;28;20028;-50
2023/01/25 06:02:36;;;;;;;4.28;3.78;;;;;;;-1.15;92.23;94416.41;5050888;28;20021;-50
2023/01/25 06:05:02;;;;;;;9.25;5.80;;;;;;;-1.07;91.80;94423.06;5050274;28;20492;-50
2023/01/25 06:07:28;;;;;;;7.13;4.72;;;;;;;-0.96;92.26;94423.38;5050274;28;20515;-50
2023/01/25 06:09:53;;;;;;;6.82;4.07;;;;;;;-0.91;91.10;94424.75;5040878;28;20025;-49
2023/01/25 06:12:20;;;;;;;9.32;5.38;;;;;;;-0.76;89.05;94420.97;5030602;28;20034;-50
2023/01/25 06:14:46;;;;;;;7.47;5.40;;;;;;;-0.77;89.75;94424.91;5030307;28;20532;-50
2023/01/25 06:17:12;;;;;;;9.13;5.03;;;;;;;-0.71;89.54;94427.75;5030367;28;20025;-50
2023/01/25 06:19:38;;;;;;;31.67;13.25;;;;;;;-0.75;90.52;94427.16;5030483;28;20018;-50
2023/01/25 06:22:03;;;;;;;22.75;11.27;;;;;;;-0.67;90.63;94430.31;5029984;28;20029;-51
2023/01/25 06:24:29;;;;;;;19.85;10.40;;;;;;;-0.69;92.36;94427.31;5030313;28;20032;-50
2023/01/25 06:26:54;;;;;;;12.70;6.07;;;;;;;-0.69;90.95;94424.59;5042006;28;20032;-50
2023/01/25 06:29:20;;;;;;;9.60;6.38;;;;;;;-0.78;91.01;94436.94;5068087;28;20055;-49
2023/01/25 06:31:45;;;;;;;9.13;6.40;;;;;;;-0.71;91.51;94430.47;5052317;28;20021;-49
2023/01/25 06:34:10;;;;;;;56.30;24.77;;;;;;;-0.74;91.42;94433.31;5048076;28;20647;-50
2023/01/25 06:36:36;;;;;;;25.60;11.70;;;;;;;-0.82;91.44;94432.84;5050063;28;20481;-48
2023/01/25 06:39:01;;;;;;;6.30;4.32;;;;;;;-1.05;90.67;94415.25;5050183;28;20405;-50
2023/01/25 06:41:27;;;;;;;5.03;2.97;;;;;;;-0.90;90.17;94432.41;5049958;28;20024;-50
2023/01/25 06:43:52;;;;;;;6.60;3.92;;;;;;;-0.99;90.21;94428.94;5049696;28;20076;-50
2023/01/25 06:46:19;;;;;;;6.63;4.75;;;;;;;-1.09;90.27;94432.84;5049650;28;20028;-49
2023/01/25 06:48:44;;;;;;;8.45;5.45;;;;;;;-1.03;90.49;94425.63;5049686;28;20027;-50
2023/01/25 06:51:11;;;;;;;4.85;4.05;;;;;;;-1.04;90.13;94426.84;5049837;28;20028;-50
2023/01/25 06:53:39;;;;;;;10.48;5.82;;;;;;;-1.19;91.10;94423.94;5049574;28;20500;-50
2023/01/25 06:56:08;;;;;;;12.25;7.55;;;;;;;-0.97;91.17;94429.25;5049168;28;20033;-49
2023/01/25 06:58:33;;;;;;;8.00;4.97;;;;;;;-0.92;90.26;94415.84;5038590;28;20092;-50
2023/01/25 07:01:13;;;;;;;8.30;6.13;;;;;;;-0.95;90.83;94419.47;5029207;28;20116;-49
2023/01/25 07:03:39;;;;;;;13.00;7.15;;;;;;;-0.90;91.04;94416.16;5031841;28;20513;-49
2023/01/25 07:06:08;;;;;;;12.23;7.45;;;;;;;-1.02;91.85;94424.44;5049660;28;20100;-50
2023/01/25 07:08:33;;;;;;;15.33;7.33;;;;;;;-0.85;92.17;94422.94;5049091;28;20036;-48
2023/01/25 07:11:01;;;;;;;10.32;6.60;;;;;;;-0.75;90.67;94427.16;5030944;28;20022;-50
2023/01/25 07:13:27;;;;;;;10.27;5.05;;;;;;;-0.85;91.72;94423.69;5029721;28;20025;-48
2023/01/25 07:15:58;;;;;;;5.72;3.65;;;;;;;-0.73;91.41;94407.69;5029020;28;20481;-50
2023/01/25 07:18:24;;;;;;;8.98;3.33;;;;;;;-0.44;91.15;94427.75;5029269;28;20505;-49
2023/01/25 07:20:50;;;;;;;14.45;5.93;;;;;;;-0.35;91.13;94422.31;5028745;28;20557;-50
2023/01/25 07:23:17;;;;;;;8.38;5.45;;;;;;;-0.40;89.56;94424.88;5029340;28;20120;-49
2023/01/25 07:25:46;;;;;;;6.88;4.50;;;;;;;-0.40;88.83;94403.91;5063494;28;20044;-53
2023/01/25 07:28:12;;;;;;;6.25;3.97;;;;;;;-0.36;88.75;94426.22;5028898;28;20402;-49
2023/01/25 07:30:39;;;;;;;13.38;6.72;;;;;;;-0.22;89.76;94425.56;5028671;28;20053;-49
2023/01/25 07:33:05;;;;;;;10.82;6.45;;;;;;;-0.18;89.87;94426.19;5039441;28;20108;-50
2023/01/25 07:35:31;;;;;;;9.40;6.68;;;;;;;-0.08;90.24;94430.38;5028870;28;20159;-50
2023/01/25 07:37:57;;;;;;;30.88;17.55;;;;;;;-0.03;89.60;94435.19;5029046;28;20040;-49
2023/01/25 07:40:25;;;;;;;18.05;8.45;;;;;;;-0.02;88.41;94433.97;5047026;28;20400;-50
2023/01/25 07:42:51;;;;;;;12.70;7.23;;;;;;;-0.07;89.27;94437.31;5048919;28;20439;-50
2023/01/25 07:45:17;;;;;;;11.13;6.80;;;;;;;-0.04;88.05;94441.81;5049021;28;20040;-49
2023/01/25 07:47:42;;;;;;;14.48;6.68;;;;;;;-0.27;87.10;94439.00;5048831;28;20514;-51
2023/01/25 07:50:09;;;;;;;12.60;8.73;;;;;;;-0.38;87.29;94434.06;5048534;28;20040;-50
2023/01/25 07:52:34;;;;;;;12.90;7.28;;;;;;;-0.35;87.67;94429.69;5048534;28;20527;-49
2023/01/25 07:54:59;;;;;;;13.23;7.38;;;;;;;-0.17;87.85;94424.97;5048781;28;20037;-51
2023/01/25 07:57:27;;;;;;;11.70;6.85;;;;;;;-0.47;87.39;94430.59;5047176;28;20033;-50
2023/01/25 07:59:52;;;;;;;10.75;5.70;;;;;;;-0.38;87.13;94430.59;5048511;28;20028;-50
2023/01/25 08:02:17;;;;;;;8.52;5.13;;;;;;;-0.38;87.62;94433.28;5048563;28;20033;-50
2023/01/25 08:04:44;;;;;;;7.70;4.65;;;;;;;-0.36;86.77;94442.50;5037249;28;20037;-50
2023/01/25 08:07:10;;;;;;;7.10;5.22;;;;;;;-0.35;87.98;94426.97;5028580;28;20112;-50
2023/01/25 08:09:35;;;;;;;6.68;4.88;;;;;;;-0.45;87.41;94436.31;5035628;28;20040;-50
2023/01/25 08:12:01;;;;;;;17.92;9.88;;;;;;;-0.33;87.52;94433.47;5048237;28;20037;-51
2023/01/25 08:14:27;;;;;;;22.58;13.35;;;;;;;-0.34;87.87;94436.59;5048553;28;20029;-49
2023/01/25 08:16:52;;;;;;;16.80;9.00;;;;;;;-0.35;87.47;94435.13;5048697;28;20033;-51
2023/01/25 08:19:19;;;;;;;9.40;7.50;;;;;;;-0.35;87.89;94427.72;5048622;28;20021;-50
2023/01/25 08:21:44;;;;;;;11.73;6.55;;;;;;;-0.41;88.27;94437.66;5066236;28;20086;-49
2023/01/25 08:24:10;;;;;;;9.68;6.78;;;;;;;-0.30;88.21;94434.47;5068633;28;20032;-50
2023/01/25 08:29:57;;;;;;;13.98;10.10;;;;;;;0.13;87.79;94452.34;5028382;28;20080;-51
2023/01/25 08:32:22;;;;;;;8.60;6.05;;;;;;;-0.07;86.10;94448.19;5031272;28;20032;-50
2023/01/25 08:34:48;;;;;;;18.90;11.20;;;;;;;-0.07;86.39;94442.75;5051578;28;20029;-51
2023/01/25 08:37:13;;;;;;;11.05;7.63;;;;;;;0.07;87.06;94452.19;5052077;28;20148;-50
2023/01/25 08:39:39;;;;;;;20.67;7.18;;;;;;;0.27;86.82;94448.97;5051970;28;20064;-50
2023/01/25 08:42:05;;;;;;;7.82;4.90;;;;;;;0.25;87.37;94459.53;5051886;28;20032;-50
2023/01/25 08:44:30;;;;;;;7.82;5.20;;;;;;;0.36;87.07;94446.22;5052240;28;20064;-50
2023/01/25 08:46:56;;;;;;;9.52;6.38;;;;;;;0.28;86.17;94455.94;5052110;28;20052;-50
2023/01/25 08:49:21;;;;;;;8.20;5.38;;;;;;;0.19;87.32;94459.44;5052189;28;20025;-50
2023/01/25 08:51:49;;;;;;;7.85;4.55;;;;;;;0.19;87.08;94447.81;5051776;28;20432;-50
2023/01/25 08:54:14;;;;;;;7.97;5.32;;;;;;;0.29;87.16;94450.03;5051910;28;20036;-51
2023/01/25 08:56:40;;;;;;;8.13;5.80;;;;;;;0.34;86.14;94451.38;5051852;28;20558;-50
2023/01/25 08:59:07;;;;;;;11.55;8.20;;;;;;;0.44;85.68;94447.41;5036464;28;20056;-50
2023/01/25 09:01:32;;;;;;;12.65;8.32;;;;;;;0.32;85.02;94448.38;5031580;28;20493;-49
2023/01/25 09:03:58;;;;;;;13.70;7.60;;;;;;;0.26;85.42;94447.47;5036677;28;20108;-50
2023/01/25 09:06:23;;;;;;;13.45;6.97;;;;;;;0.27;85.82;94443.53;5051703;28;20039;-50
2023/01/25 09:08:49;;;;;;;7.28;5.35;;;;;;;0.09;85.85;94438.19;5051078;28;20028;-50
2023/01/25 09:11:17;;;;;;;11.25;6.82;;;;;;;0.12;86.42;94435.31;5031587;28;20029;-50
2023/01/25 09:13:43;;;;;;;7.93;4.97;;;;;;;0.05;85.30;94424.00;5031363;28;20771;-49
2023/01/25 09:16:12;;;;;;;15.05;8.05;;;;;;;0.00;85.95;94428.84;5036355;28;20033;-52
2023/01/25 09:18:40;;;;;;;11.50;7.45;;;;;;;-0.02;85.99;94423.13;5071228;28;20074;-51
2023/01/25 09:21:13;;;;;;;12.68;7.45;;;;;;;-0.12;87.00;94424.38;5071526;28;20028;-50
2023/01/25 09:23:39;;;;;;;8.85;6.05;;;;;;;-0.24;88.24;94419.84;5071715;28;20417;-51
2023/01/25 09:26:05;;;;;;;14.25;8.15;;;;;;;-0.21;88.10;94421.66;5060436;28;20025;-49
2023/01/25 09:28:32;;;;;;;11.45;7.63;;;;;;;-0.22;87.76;94420.16;5031085;28;20021;-49
2023/01/25 09:30:59;;;;;;;16.58;9.82;;;;;;;-0.26;88.04;94418.81;5030950;28;20109;-49
2023/01/25 09:33:34;;;;;;;10.30;6.28;;;;;;;-0.27;86.47;94412.63;5042660;28;20033;-52
2023/01/25 09:36:00;;;;;;;10.05;6.57;;;;;;;-0.29;87.05;94406.16;5051373;28;20108;-50
2023/01/25 09:38:25;;;;;;;15.90;9.23;;;;;;;-0.40;87.78;94390.34;5051179;28;20048;-49
2023/01/25 09:41:05;;;;;;;12.30;6.60;;;;;;;-0.31;88.39;94398.47;5032976;28;20504;-50
2023/01/25 09:43:46;;;;;;;11.80;7.13;;;;;;;-0.21;87.92;94388.34;5050912;28;20496;-49
2023/01/25 09:46:32;;;;;;;14.13;9.00;;;;;;;0.05;87.86;94386.00;5050721;28;20130;-52
2023/01/25 09:49:19;;;;;;;17.75;9.93;;;;;;;0.15;87.44;94379.34;5050659;28;20062;-49
2023/01/25 09:52:13;;;;;;;8.77;6.03;;;;;;;-0.12;87.62;94378.22;5049624;28;20029;-51
2023/01/25 09:54:40;;;;;;;9.63;6.45;;;;;;;0.06;87.14;94376.66;5031672;28;20754;-49
2023/01/25 09:57:20;;;;;;;12.48;6.88;;;;;;;-0.08;86.78;94370.66;5049665;28;20041;-50
2023/01/25 09:59:47;;;;;;;10.32;6.47;;;;;;;0.02;87.14;94362.50;5046330;28;20208;-51
2023/01/25 10:02:25;;;;;;;10.15;6.35;;;;;;;-0.06;88.34;94359.34;5029094;28;20034;-49
2023/01/25 10:04:53;;;;;;;8.32;5.90;;;;;;;0.03;88.10;94358.56;5038759;28;20033;-49
2023/01/25 10:07:24;;;;;;;8.70;4.93;;;;;;;0.08;87.72;94355.97;5030453;28;20025;-49
2023/01/25 10:10:06;;;;;;;9.30;6.25;;;;;;;0.05;88.44;94356.13;5029145;28;20036;-50
2023/01/25 10:12:36;;;;;;;12.13;7.78;;;;;;;0.17;88.41;94353.22;5036223;28;20028;-49
2023/01/25 10:15:19;;;;;;;10.15;5.93;;;;;;;0.14;87.82;94339.81;5070494;28;20036;-50
2023/01/25 10:17:45;;;;;;;12.40;6.43;;;;;;;0.20;87.48;94349.56;5070183;28;20047;-49
2023/01/25 10:20:32;;;;;;;11.98;5.78;;;;;;;0.20;87.67;94346.09;5069013;28;20024;-49
2023/01/25 10:23:00;;;;;;;9.93;6.07;;;;;;;0.37;88.22;94341.81;5070028;28;20546;-49
2023/01/25 10:25:35;;;;;;;8.60;6.17;;;;;;;0.23;87.59;94332.38;5070260;28;20089;-51
2023/01/25 10:28:12;;;;;;;9.23;6.32;;;;;;;0.27;87.42;94329.47;5029997;28;20079;-51
2023/01/25 10:31:01;;;;;;;10.82;6.00;;;;;;;0.04;88.14;94325.53;5029882;28;20494;-50
2023/01/25 10:33:27;;;;;;;13.15;8.15;;;;;;;0.04;88.08;94322.06;5042058;28;20424;-50
2023/01/25 10:35:54;;;;;;;17.00;9.38;;;;;;;-0.13;89.47;94318.97;5048450;28;20107;-50
2023/01/25 10:38:30;;;;;;;14.60;8.70;;;;;;;-0.17;89.86;94315.66;5047735;28;20040;-51
2023/01/25 10:41:27;;;;;;;18.10;8.88;;;;;;;-0.01;89.07;94310.63;5028594;28;20112;-49
2023/01/25 10:46:38;;;;;;;24.98;12.57;;;;;;;-0.13;89.49;94298.00;5029878;28;20472;-49
2023/01/25 10:49:23;;;;;;;20.77;12.43;;;;;;;-0.07;88.48;94300.84;5028439;28;20112;-50
2023/01/25 10:51:48;;;;;;;22.95;12.77;;;;;;;-0.01;88.71;94294.34;5028614;28;20029;-51
2023/01/25 10:54:15;;;;;;;21.27;11.63;;;;;;;0.07;88.66;94289.31;5029296;28;20034;-50
2023/01/25 10:56:41;;;;;;;21.08;11.23;;;;;;;-0.12;89.21;94290.63;5029072;28;20033;-50
2023/01/25 10:59:12;;;;;;;16.92;10.48;;;;;;;-0.25;90.59;94290.81;5044133;28;20025;-50
2023/01/25 11:01:37;;;;;;;22.58;11.15;;;;;;;-0.19;90.89;94288.22;5048028;28;20036;-50
2023/01/25 11:04:22;;;;;;;18.92;10.75;;;;;;;-0.14;90.54;94290.31;5043718;28;20032;-50
2023/01/25 11:06:50;;;;;;;16.67;9.43;;;;;;;-0.05;89.49;94274.75;5029410;28;20025;-50
2023/01/25 11:09:21;;;;;;;14.35;8.95;;;;;;;-0.17;89.72;94281.13;5040243;28;20032;-50
2023/01/25 11:12:01;;;;;;;16.60;10.20;;;;;;;-0.17;89.84;94280.38;5049652;28;20032;-49
2023/01/25 11:14:29;;;;;;;11.43;7.00;;;;;;;-0.01;90.15;94271.88;5047774;28;20057;-50
2023/01/25 11:16:56;;;;;;;16.63;9.77;;;;;;;0.07;89.95;94266.84;5047835;28;20485;-50
2023/01/25 11:19:38;;;;;;;33.20;16.80;;;;;;;0.07;89.54;94266.84;5049435;28;20053;-51
2023/01/25 11:22:24;;;;;;;18.38;9.77;;;;;;;-0.08;89.43;94266.75;5048912;28;20504;-50
2023/01/25 11:24:50;;;;;;;27.00;12.75;;;;;;;-0.15;90.09;94270.56;5049167;28;20106;-48
2023/01/25 11:27:19;;;;;;;27.20;14.35;;;;;;;-0.01;89.32;94258.28;5048854;28;20071;-50
2023/01/25 11:29:46;;;;;;;25.67;12.73;;;;;;;0.12;89.74;94269.69;5048693;28;20045;-51
2023/01/25 11:32:21;;;;;;;23.85;10.90;;;;;;;0.07;89.11;94264.13;5036724;28;20044;-49
2023/01/25 11:34:48;;;;;;;15.57;9.02;;;;;;;-0.14;89.46;94269.38;5048937;28;20116;-51
2023/01/25 11:37:20;;;;;;;13.88;9.35;;;;;;;-0.03;89.97;94266.16;5048817;28;20112;-50
2023/01/25 11:40:07;;;;;;;13.05;8.30;;;;;;;-0.15;89.98;94259.72;5049100;28;20033;-50
2023/01/25 11:42:41;;;;;;;13.68;8.52;;;;;;;0.12;88.54;94266.22;5048745;28;20120;-50